Artesia, Mississippi
Current Conditions -  °F | °C
As of 2:50 PM on Thursday 18 Dec 2014 (Local Time) from KGTR Reporting Station
Overcast Overcast  
Wind Chill: 52°   Ceiling: 4000
Heat Index: 52°   Visibility: 10mi
Dew Point: 30°   Wind: 5mph
Humidity: 44%   Direction: 20°NNE
Pressure: 30.16"   Gusts: NA
Location:  33.42°N, 88.64°W
Report Text: KGTR 182050Z 02004KT 10SM OVC040 11/M01 A3016
Loading
Personal Weather Stations






























Interactive Weather Map New forecast layout! Learn more

10-Day Weather Forecast

Advertisements
Track Severe Weather on mobile